Time;durP1;ratioP1;P1;durP2;ratioP2;P2;SDS_P1;SDS_P2;PMS_P1;PMS_P2;Temp;Humidity;BMP_temperature;BMP_pressure;BME280_temperature;BME280_humidity;BME280_pressure;Samples;Min_cycle;Max_cycle;Signal;HPM_P1;HPM_P2
2023/12/14 00:01:41;;;;;;;0.00;0.00;;;11.80;78.90;;;;;;5047373;28;20690;-34
2023/12/14 00:04:11;;;;;;;0.00;0.00;;;11.80;78.90;;;;;;5062561;28;20218;-33
2023/12/14 00:06:40;;;;;;;0.00;0.00;;;11.80;78.90;;;;;;5050795;28;20330;-34
2023/12/14 00:09:08;;;;;;;0.00;0.00;;;11.80;78.70;;;;;;5064097;28;20207;-34
2023/12/14 00:11:41;;;;;;;0.00;0.00;;;11.80;78.70;;;;;;5055521;28;20227;-33
2023/12/14 00:14:08;;;;;;;0.00;0.00;;;11.90;78.70;;;;;;5053865;28;20230;-33
2023/12/14 00:16:38;;;;;;;0.00;0.00;;;11.90;78.70;;;;;;5064097;28;20717;-34
2023/12/14 00:19:05;;;;;;;0.00;0.00;;;11.80;78.70;;;;;;5064061;28;20219;-33
2023/12/14 00:21:34;;;;;;;0.00;0.00;;;11.90;78.80;;;;;;5062753;28;20227;-34
2023/12/14 00:24:05;;;;;;;0.00;0.00;;;11.90;78.70;;;;;;5052790;28;20210;-34
2023/12/14 00:26:34;;;;;;;0.00;0.00;;;11.90;78.70;;;;;;5042323;28;20713;-33
2023/12/14 00:29:03;;;;;;;0.00;0.00;;;11.90;78.70;;;;;;5041566;28;20709;-34
2023/12/14 00:31:31;;;;;;;0.00;0.00;;;11.90;78.70;;;;;;5042881;28;20682;-34
2023/12/14 00:33:58;;;;;;;0.00;0.00;;;11.80;78.60;;;;;;5043683;28;20323;-33
2023/12/14 00:36:28;;;;;;;0.00;0.00;;;11.80;78.60;;;;;;5044067;28;20292;-33
2023/12/14 00:38:56;;;;;;;0.00;0.00;;;11.80;78.60;;;;;;5043871;28;20303;-34
2023/12/14 00:41:26;;;;;;;0.00;0.00;;;11.80;78.70;;;;;;5044050;28;20196;-34
2023/12/14 00:43:53;;;;;;;0.00;0.00;;;11.80;79.50;;;;;;5043527;28;20702;-35
2023/12/14 00:46:23;;;;;;;0.00;0.00;;;11.80;78.80;;;;;;5042654;28;20215;-34
2023/12/14 00:48:55;;;;;;;0.00;0.00;;;11.80;78.70;;;;;;5047981;28;20564;-33
2023/12/14 00:51:23;;;;;;;0.00;0.00;;;11.80;78.80;;;;;;5047920;28;20247;-33
2023/12/14 00:53:52;;;;;;;0.00;0.00;;;11.80;78.80;;;;;;5029733;28;20220;-35
2023/12/14 00:56:21;;;;;;;0.00;0.00;;;11.80;78.90;;;;;;5047496;28;20227;-34
2023/12/14 00:58:53;;;;;;;0.00;0.00;;;11.80;78.90;;;;;;5046512;28;20313;-33
2023/12/14 01:01:20;;;;;;;0.00;0.00;;;11.80;78.90;;;;;;5064741;28;20210;-33
2023/12/14 01:03:50;;;;;;;0.00;0.00;;;11.80;78.90;;;;;;5064624;28;20200;-34
2023/12/14 01:06:22;;;;;;;0.00;0.00;;;11.80;78.90;;;;;;5048124;28;20236;-33
2023/12/14 01:08:51;;;;;;;0.00;0.00;;;11.80;78.90;;;;;;5061659;28;20287;-33
2023/12/14 01:11:23;;;;;;;0.00;0.00;;;11.80;78.90;;;;;;5052367;28;20212;-33
2023/12/14 01:13:50;;;;;;;0.00;0.00;;;11.80;78.80;;;;;;5060064;28;20215;-34
2023/12/14 01:16:19;;;;;;;0.00;0.00;;;11.80;78.90;;;;;;5065635;28;20269;-33
2023/12/14 01:18:46;;;;;;;0.00;0.00;;;11.90;78.90;;;;;;5065041;28;20206;-33
2023/12/14 01:21:16;;;;;;;0.00;0.00;;;11.80;78.80;;;;;;5065338;28;20200;-33
2023/12/14 01:23:44;;;;;;;0.00;0.00;;;11.80;78.90;;;;;;5054678;28;20227;-35
2023/12/14 01:26:13;;;;;;;0.00;0.00;;;11.90;78.80;;;;;;5049114;28;20204;-34
2023/12/14 01:28:43;;;;;;;0.00;0.00;;;11.80;78.80;;;;;;5051185;28;20282;-34
2023/12/14 01:31:12;;;;;;;0.00;0.00;;;11.80;78.70;;;;;;5058919;28;20204;-34
2023/12/14 01:33:40;;;;;;;0.00;0.00;;;11.90;78.80;;;;;;5064974;28;20211;-35
2023/12/14 01:36:12;;;;;;;0.00;0.00;;;11.80;78.70;;;;;;5047599;28;20770;-34
2023/12/14 01:38:43;;;;;;;0.00;0.00;;;11.80;78.80;;;;;;5053651;28;20782;-34
2023/12/14 01:41:13;;;;;;;0.00;0.00;;;11.80;78.70;;;;;;5065460;28;20200;-33
2023/12/14 01:43:43;;;;;;;0.00;0.00;;;11.80;78.70;;;;;;5063851;28;20211;-33
2023/12/14 01:46:10;;;;;;;0.00;0.00;;;11.70;78.60;;;;;;5064128;28;20292;-33
2023/12/14 01:48:40;;;;;;;0.00;0.00;;;11.70;78.60;;;;;;5044733;28;20224;-33
2023/12/14 01:51:11;;;;;;;0.00;0.00;;;11.70;78.60;;;;;;5046118;28;20200;-34
2023/12/14 01:53:40;;;;;;;0.00;0.00;;;11.70;78.60;;;;;;5046060;28;20208;-33
2023/12/14 01:56:08;;;;;;;0.00;0.00;;;11.60;78.50;;;;;;5047012;28;20307;-34
2023/12/14 01:58:37;;;;;;;0.00;0.00;;;11.60;78.40;;;;;;5050011;28;20211;-33
2023/12/14 02:01:25;;;;;;;0.00;0.00;;;11.50;78.40;;;;;;5066136;28;20291;-34
2023/12/14 02:03:55;;;;;;;0.00;0.00;;;11.40;78.30;;;;;;5063387;28;20199;-34
2023/12/14 02:06:24;;;;;;;0.00;0.00;;;11.30;78.40;;;;;;5060911;28;20231;-34
2023/12/14 02:08:55;;;;;;;0.00;0.00;;;11.30;78.40;;;;;;5054728;28;20211;-33
2023/12/14 02:11:24;;;;;;;0.00;0.00;;;11.20;78.40;;;;;;5064076;28;20200;-34
2023/12/14 02:13:54;;;;;;;0.00;0.00;;;11.20;78.40;;;;;;5063781;28;20735;-34
2023/12/14 02:16:28;;;;;;;0.00;0.00;;;11.10;78.40;;;;;;5051251;28;20282;-34
2023/12/14 02:18:57;;;;;;;0.00;0.00;;;11.10;78.40;;;;;;5065434;28;20191;-33
2023/12/14 02:21:27;;;;;;;0.00;0.00;;;11.00;78.40;;;;;;5065186;28;20208;-33
2023/12/14 02:23:57;;;;;;;0.00;0.00;;;10.90;78.40;;;;;;5065117;28;20204;-34
2023/12/14 02:26:30;;;;;;;0.00;0.00;;;10.90;78.40;;;;;;5063872;28;20195;-33
2023/12/14 02:28:57;;;;;;;0.00;0.00;;;10.80;78.30;;;;;;5056050;28;20204;-33
2023/12/14 02:31:24;;;;;;;0.00;0.00;;;10.80;78.40;;;;;;5048928;28;20235;-34
2023/12/14 02:33:54;;;;;;;0.00;0.00;;;10.70;78.40;;;;;;5059323;28;20228;-33
2023/12/14 02:36:24;;;;;;;0.00;0.00;;;10.70;78.40;;;;;;5043891;28;20319;-34
2023/12/14 02:38:51;;;;;;;0.00;0.00;;;10.60;78.40;;;;;;5048530;28;20200;-34
2023/12/14 02:41:18;;;;;;;0.00;0.00;;;10.60;78.60;;;;;;5048333;28;20315;-34
2023/12/14 02:43:53;;;;;;;0.00;0.00;;;10.60;78.60;;;;;;5062087;28;20319;-34
2023/12/14 02:46:20;;;;;;;0.00;0.00;;;10.60;78.60;;;;;;5049865;28;20234;-34
2023/12/14 02:48:47;;;;;;;0.00;0.00;;;10.60;78.50;;;;;;5064812;28;20230;-34
2023/12/14 02:51:17;;;;;;;0.00;0.00;;;10.50;78.40;;;;;;5064937;28;20577;-34
2023/12/14 02:53:49;;;;;;;0.00;0.00;;;10.50;78.50;;;;;;5064825;28;20563;-33
2023/12/14 02:56:18;;;;;;;0.00;0.00;;;10.50;78.50;;;;;;5064840;28;20377;-34
2023/12/14 02:58:51;;;;;;;0.00;0.00;;;10.40;78.40;;;;;;5057700;28;20219;-33
2023/12/14 03:01:25;;;;;;;0.00;0.00;;;10.40;78.50;;;;;;5044760;28;20212;-35
2023/12/14 03:03:56;;;;;;;0.00;0.00;;;10.40;78.60;;;;;;5053474;28;20199;-33
2023/12/14 03:06:23;;;;;;;0.00;0.00;;;10.30;78.60;;;;;;5064488;28;20729;-34
2023/12/14 03:08:50;;;;;;;0.00;0.00;;;10.30;78.60;;;;;;5064769;28;20207;-34
2023/12/14 03:11:24;;;;;;;0.00;0.00;;;10.30;78.70;;;;;;5062826;28;20208;-34
2023/12/14 03:13:53;;;;;;;0.00;0.00;;;10.30;78.70;;;;;;5062142;28;20209;-34
2023/12/14 03:16:23;;;;;;;0.00;0.00;;;10.30;78.70;;;;;;5064836;28;20219;-35
2023/12/14 03:18:53;;;;;;;0.00;0.00;;;10.30;78.60;;;;;;5064853;28;20227;-33
2023/12/14 03:21:23;;;;;;;0.00;0.00;;;10.20;78.50;;;;;;5048721;28;20705;-34
2023/12/14 03:23:50;;;;;;;0.00;0.00;;;10.20;78.60;;;;;;5044288;28;20238;-34
2023/12/14 03:26:20;;;;;;;0.00;0.00;;;10.20;78.60;;;;;;5044241;28;20215;-33
2023/12/14 03:28:47;;;;;;;0.00;0.00;;;10.20;78.70;;;;;;5044038;28;20334;-34
2023/12/14 03:31:17;;;;;;;0.00;0.00;;;10.20;78.70;;;;;;5059490;28;20670;-34
2023/12/14 03:33:45;;;;;;;0.00;0.00;;;10.20;78.70;;;;;;5044238;28;20224;-33
2023/12/14 03:36:13;;;;;;;0.00;0.00;;;10.20;78.70;;;;;;5069513;28;20594;-33
2023/12/14 03:38:40;;;;;;;0.00;0.00;;;10.20;78.80;;;;;;5059429;28;20195;-33
2023/12/14 03:41:14;;;;;;;0.00;0.00;;;10.20;78.80;;;;;;5064482;28;20629;-34
2023/12/14 03:43:46;;;;;;;0.00;0.00;;;10.20;78.60;;;;;;5044690;28;20217;-33
2023/12/14 03:46:16;;;;;;;0.00;0.00;;;10.20;78.60;;;;;;5045199;28;20641;-33
2023/12/14 03:48:45;;;;;;;0.00;0.00;;;10.10;78.50;;;;;;5047942;28;20761;-33
2023/12/14 03:51:14;;;;;;;0.00;0.00;;;10.10;78.60;;;;;;5061489;28;20250;-33
2023/12/14 03:53:41;;;;;;;0.00;0.00;;;10.10;78.60;;;;;;5052650;28;20294;-33
2023/12/14 03:56:09;;;;;;;0.00;0.00;;;10.10;78.60;;;;;;5062011;28;20219;-34
2023/12/14 03:58:36;;;;;;;0.00;0.00;;;10.10;78.60;;;;;;5047918;28;20211;-33
2023/12/14 04:01:06;;;;;;;0.00;0.00;;;10.10;78.60;;;;;;5044009;28;20208;-34
2023/12/14 04:03:36;;;;;;;0.00;0.00;;;10.00;78.50;;;;;;5042552;28;20577;-34
2023/12/14 04:06:05;;;;;;;0.00;0.00;;;10.00;78.60;;;;;;5042376;28;20611;-34
2023/12/14 04:08:35;;;;;;;0.00;0.00;;;10.00;78.50;;;;;;5043874;28;20204;-33
2023/12/14 04:11:05;;;;;;;0.00;0.00;;;9.90;78.40;;;;;;5059361;28;20224;-33
2023/12/14 04:13:35;;;;;;;0.00;0.00;;;9.90;78.40;;;;;;5063481;28;20215;-33
2023/12/14 04:16:04;;;;;;;0.00;0.00;;;9.80;78.30;;;;;;5062813;28;20211;-34
2023/12/14 04:18:34;;;;;;;0.00;0.00;;;9.80;78.30;;;;;;5063848;28;20200;-34
2023/12/14 04:21:01;;;;;;;0.00;0.00;;;9.80;78.40;;;;;;5064090;28;20306;-34
2023/12/14 04:23:28;;;;;;;0.00;0.00;;;9.80;78.40;;;;;;5067268;28;20196;-33
2023/12/14 04:25:58;;;;;;;0.00;0.00;;;9.70;78.30;;;;;;5067951;28;20200;-33
2023/12/14 04:28:27;;;;;;;0.00;0.00;;;9.70;78.30;;;;;;5066504;28;20294;-33
2023/12/14 04:30:57;;;;;;;0.00;0.00;;;9.70;78.30;;;;;;5066306;28;20619;-33
2023/12/14 04:33:24;;;;;;;0.00;0.00;;;9.70;78.20;;;;;;5066423;28;20199;-34
2023/12/14 04:35:52;;;;;;;0.00;0.00;;;9.60;78.10;;;;;;5067340;28;20227;-34
2023/12/14 04:38:22;;;;;;;0.00;0.00;;;9.60;78.20;;;;;;5067310;28;20216;-33
2023/12/14 04:40:54;;;;;;;0.00;0.00;;;9.60;78.30;;;;;;5065687;28;20256;-33
2023/12/14 04:43:24;;;;;;;0.00;0.00;;;9.60;78.30;;;;;;5065048;28;20673;-34
2023/12/14 04:45:51;;;;;;;0.00;0.00;;;9.60;78.30;;;;;;5066368;28;20202;-33
2023/12/14 04:48:18;;;;;;;0.00;0.00;;;9.50;78.30;;;;;;5067210;28;20220;-33
2023/12/14 04:50:48;;;;;;;0.00;0.00;;;9.50;78.20;;;;;;5067351;28;20195;-33
2023/12/14 04:53:15;;;;;;;0.00;0.00;;;9.50;78.20;;;;;;5066953;28;20200;-33
2023/12/14 04:55:47;;;;;;;0.00;0.00;;;9.50;78.30;;;;;;5067090;28;20231;-33
2023/12/14 04:58:15;;;;;;;0.00;0.00;;;9.50;78.30;;;;;;5066627;28;20603;-34
2023/12/14 05:00:43;;;;;;;0.00;0.00;;;9.40;78.10;;;;;;5056613;28;20298;-34
2023/12/14 05:03:13;;;;;;;0.00;0.00;;;9.50;78.10;;;;;;5054054;28;20223;-33
2023/12/14 05:05:40;;;;;;;0.00;0.00;;;9.40;78.00;;;;;;5064286;28;20235;-33
2023/12/14 05:08:07;;;;;;;0.00;0.00;;;9.40;77.90;;;;;;5053453;28;20197;-34
2023/12/14 05:10:37;;;;;;;0.00;0.00;;;9.30;77.90;;;;;;5065635;28;20208;-33
2023/12/14 05:13:04;;;;;;;0.00;0.00;;;9.30;78.00;;;;;;5055834;28;20643;-33
2023/12/14 05:15:31;;;;;;;0.00;0.00;;;9.30;78.20;;;;;;5045418;28;20228;-33
2023/12/14 05:18:00;;;;;;;0.00;0.00;;;9.30;78.20;;;;;;5045372;28;20200;-33
2023/12/14 05:20:32;;;;;;;0.00;0.00;;;9.30;78.30;;;;;;5058816;28;20207;-33
2023/12/14 05:23:00;;;;;;;0.00;0.00;;;9.30;78.40;;;;;;5066701;28;20223;-33
2023/12/14 05:25:27;;;;;;;0.00;0.00;;;9.30;78.30;;;;;;5056646;28;20291;-34
2023/12/14 05:27:54;;;;;;;0.00;0.00;;;9.30;78.20;;;;;;5046807;28;20805;-33
2023/12/14 05:30:21;;;;;;;0.00;0.00;;;9.30;78.10;;;;;;5061451;28;20207;-33
2023/12/14 05:32:51;;;;;;;0.00;0.00;;;9.30;78.10;;;;;;5055924;28;20223;-34
2023/12/14 05:35:21;;;;;;;0.00;0.00;;;9.30;78.20;;;;;;5054091;28;20260;-34
2023/12/14 05:37:51;;;;;;;0.00;0.00;;;9.30;78.30;;;;;;5058486;28;20302;-34
2023/12/14 05:40:21;;;;;;;0.00;0.00;;;9.30;78.30;;;;;;5061077;28;20212;-33
2023/12/14 05:42:50;;;;;;;0.00;0.00;;;9.30;78.30;;;;;;5045470;28;20293;-34
2023/12/14 05:45:21;;;;;;;0.00;0.00;;;9.30;78.30;;;;;;5046176;28;20212;-34
2023/12/14 05:47:48;;;;;;;0.00;0.00;;;9.30;78.30;;;;;;5060485;28;20686;-33
2023/12/14 05:50:15;;;;;;;0.00;0.00;;;9.40;78.50;;;;;;5044838;28;20223;-33
2023/12/14 05:52:43;;;;;;;0.00;0.00;;;9.40;78.50;;;;;;5044450;28;20211;-33
2023/12/14 05:55:10;;;;;;;0.00;0.00;;;9.40;78.50;;;;;;5065614;28;20265;-34
2023/12/14 05:57:42;;;;;;;0.00;0.00;;;9.40;78.40;;;;;;5052213;28;20204;-34
2023/12/14 06:00:09;;;;;;;0.00;0.00;;;9.40;78.10;;;;;;5057587;28;20200;-34
2023/12/14 06:02:38;;;;;;;0.00;0.00;;;9.40;78.00;;;;;;5051615;28;20199;-34
2023/12/14 06:05:11;;;;;;;0.00;0.00;;;9.30;78.00;;;;;;5052752;28;20194;-34
2023/12/14 06:07:41;;;;;;;0.00;0.00;;;9.30;78.10;;;;;;5051729;28;20291;-33
2023/12/14 06:10:13;;;;;;;0.00;0.00;;;9.30;78.20;;;;;;5054529;28;20196;-34
2023/12/14 06:12:41;;;;;;;0.00;0.00;;;9.30;78.20;;;;;;5049497;28;20208;-34
2023/12/14 06:15:13;;;;;;;0.00;0.00;;;9.30;78.30;;;;;;5052382;28;20232;-34
2023/12/14 06:17:43;;;;;;;0.00;0.00;;;9.30;78.30;;;;;;5052227;28;20200;-34
2023/12/14 06:20:10;;;;;;;0.00;0.00;;;9.30;78.20;;;;;;5046463;28;20738;-34
2023/12/14 06:22:38;;;;;;;0.00;0.00;;;9.20;78.10;;;;;;5044831;28;20193;-34
2023/12/14 06:25:08;;;;;;;0.00;0.00;;;9.20;78.20;;;;;;5045131;28;20211;-33
2023/12/14 06:27:35;;;;;;;0.00;0.00;;;9.30;78.40;;;;;;5044907;28;20199;-34
2023/12/14 06:30:03;;;;;;;0.00;0.00;;;9.30;78.50;;;;;;5045537;28;20200;-33
2023/12/14 06:32:30;;;;;;;0.00;0.00;;;9.30;78.40;;;;;;5059303;28;20222;-33
2023/12/14 06:35:02;;;;;;;0.00;0.00;;;9.30;78.40;;;;;;5065488;28;20205;-34
2023/12/14 06:37:34;;;;;;;0.00;0.00;;;9.30;78.40;;;;;;5062996;28;20614;-34
2023/12/14 06:40:04;;;;;;;0.00;0.00;;;9.30;78.30;;;;;;5064814;28;20211;-33
2023/12/14 06:42:33;;;;;;;0.00;0.00;;;9.30;78.30;;;;;;5052245;28;20732;-34
2023/12/14 06:45:04;;;;;;;0.00;0.00;;;9.30;78.40;;;;;;5063505;28;20586;-35
2023/12/14 06:47:34;;;;;;;0.00;0.00;;;9.40;78.50;;;;;;5062851;28;20206;-36
2023/12/14 06:50:02;;;;;;;0.00;0.00;;;9.40;78.50;;;;;;5064511;28;20807;-35
2023/12/14 06:52:31;;;;;;;0.00;0.00;;;9.40;78.40;;;;;;5059581;28;20261;-35
2023/12/14 06:55:01;;;;;;;0.00;0.00;;;9.40;78.40;;;;;;5063194;28;20214;-34
2023/12/14 06:57:30;;;;;;;0.00;0.00;;;9.40;78.50;;;;;;5063717;28;20652;-36
2023/12/14 06:59:59;;;;;;;0.00;0.00;;;9.40;78.60;;;;;;5048569;28;20675;-33
2023/12/14 07:02:27;;;;;;;0.00;0.00;;;9.40;78.60;;;;;;5059400;28;20600;-33
2023/12/14 07:04:54;;;;;;;0.00;0.00;;;9.40;78.50;;;;;;5048386;28;20219;-31
2023/12/14 07:07:23;;;;;;;0.00;0.00;;;9.40;78.40;;;;;;5043274;28;20220;-34
2023/12/14 07:09:51;;;;;;;0.00;0.00;;;9.50;78.50;;;;;;5065357;28;20208;-34
2023/12/14 07:12:18;;;;;;;0.00;0.00;;;9.50;78.40;;;;;;5064899;28;20203;-33
2023/12/14 07:14:48;;;;;;;0.00;0.00;;;9.50;78.40;;;;;;5048100;28;20222;-33
2023/12/14 07:17:15;;;;;;;0.00;0.00;;;9.50;78.40;;;;;;5048195;28;20234;-33
2023/12/14 07:19:45;;;;;;;0.00;0.00;;;9.50;78.40;;;;;;5064136;28;20720;-33
2023/12/14 07:22:14;;;;;;;0.00;0.00;;;9.50;78.40;;;;;;5064037;28;21004;-34
2023/12/14 07:24:42;;;;;;;0.00;0.00;;;9.50;78.30;;;;;;5046058;28;20216;-33
2023/12/14 07:27:21;;;;;;;0.00;0.00;;;9.50;78.40;;;;;;5042661;28;20196;-33
2023/12/14 07:29:50;;;;;;;0.00;0.00;;;9.50;78.40;;;;;;5062379;28;20552;-34
2023/12/14 07:32:21;;;;;;;0.00;0.00;;;9.50;78.40;;;;;;5052148;28;20200;-33
2023/12/14 07:34:52;;;;;;;0.00;0.00;;;9.50;78.30;;;;;;5042584;28;20641;-34
2023/12/14 07:37:22;;;;;;;0.00;0.00;;;9.50;78.20;;;;;;5025351;28;20307;-34
2023/12/14 07:39:54;;;;;;;0.00;0.00;;;9.40;78.20;;;;;;5041280;28;20587;-34
2023/12/14 07:42:24;;;;;;;0.00;0.00;;;9.40;78.20;;;;;;5061419;28;20207;-34
2023/12/14 07:44:51;;;;;;;0.00;0.00;;;9.40;78.10;;;;;;5041212;28;20205;-33
2023/12/14 07:47:21;;;;;;;0.00;0.00;;;9.40;78.20;;;;;;5056713;28;20579;-34
2023/12/14 07:49:50;;;;;;;0.00;0.00;;;9.40;78.30;;;;;;5053426;28;20231;-33
2023/12/14 07:52:18;;;;;;;0.00;0.00;;;9.30;78.30;;;;;;5045237;28;20211;-34
2023/12/14 07:54:48;;;;;;;0.00;0.00;;;9.40;78.40;;;;;;5041974;28;20204;-33
2023/12/14 07:57:15;;;;;;;0.00;0.00;;;9.40;78.40;;;;;;5045215;28;20227;-34
2023/12/14 07:59:47;;;;;;;0.00;0.00;;;9.40;78.40;;;;;;5045717;28;20196;-35
2023/12/14 08:02:16;;;;;;;0.00;0.00;;;9.40;78.40;;;;;;5060305;28;20217;-35
2023/12/14 08:04:46;;;;;;;0.00;0.00;;;9.40;78.40;;;;;;5065090;28;20210;-35
2023/12/14 08:07:13;;;;;;;0.00;0.00;;;9.40;78.40;;;;;;5068038;28;20875;-34
2023/12/14 08:09:40;;;;;;;0.00;0.00;;;9.30;78.30;;;;;;5063332;28;20205;-34
2023/12/14 08:12:10;;;;;;;0.00;0.00;;;9.30;78.20;;;;;;5061148;28;20892;-34
2023/12/14 08:14:41;;;;;;;0.00;0.00;;;9.30;78.20;;;;;;5051857;28;20207;-35
2023/12/14 08:17:10;;;;;;;0.00;0.00;;;9.30;78.30;;;;;;5065358;28;20215;-34
2023/12/14 08:19:45;;;;;;;0.00;0.00;;;9.30;78.30;;;;;;5066399;28;20315;-35
2023/12/14 08:22:15;;;;;;;0.00;0.00;;;9.30;78.40;;;;;;5056481;28;20201;-35
2023/12/14 08:24:42;;;;;;;0.00;0.00;;;9.30;78.40;;;;;;5055039;28;20253;-34
2023/12/14 08:27:12;;;;;;;0.00;0.00;;;9.40;78.40;;;;;;5060869;28;20512;-34
2023/12/14 08:29:41;;;;;;;0.00;0.00;;;9.30;78.30;;;;;;5046558;28;20220;-35
2023/12/14 08:32:13;;;;;;;0.00;0.00;;;9.40;78.40;;;;;;5050533;28;20718;-34
2023/12/14 08:34:45;;;;;;;0.00;0.00;;;9.40;79.20;;;;;;5055257;28;20298;-34
2023/12/14 08:37:12;;;;;;;0.00;0.00;;;9.30;78.30;;;;;;5063590;28;20232;-34
2023/12/14 08:39:44;;;;;;;0.00;0.00;;;9.30;78.30;;;;;;5054629;28;20251;-34
2023/12/14 08:42:14;;;;;;;0.00;0.00;;;9.40;79.20;;;;;;5053842;28;20184;-34
2023/12/14 08:44:41;;;;;;;0.00;0.00;;;9.30;78.30;;;;;;5056428;28;20249;-34
2023/12/14 08:47:10;;;;;;;0.00;0.00;;;9.30;78.30;;;;;;5066868;28;20215;-34
2023/12/14 08:49:38;;;;;;;0.00;0.00;;;9.40;78.30;;;;;;5051225;28;20204;-34
2023/12/14 08:52:05;;;;;;;0.00;0.00;;;9.40;78.30;;;;;;5056157;28;20266;-34
2023/12/14 08:54:32;;;;;;;0.00;0.00;;;9.30;78.20;;;;;;5054985;28;20220;-35
2023/12/14 08:57:04;;;;;;;0.00;0.00;;;9.30;78.20;;;;;;5062260;28;20218;-34
2023/12/14 08:59:32;;;;;;;0.00;0.00;;;9.40;78.30;;;;;;5049471;28;20188;-33
2023/12/14 09:02:01;;;;;;;0.00;0.00;;;9.30;78.30;;;;;;5048719;28;20226;-34
2023/12/14 09:04:28;;;;;;;0.00;0.00;;;9.30;78.30;;;;;;5051020;28;20209;-34
2023/12/14 09:06:58;;;;;;;0.00;0.00;;;9.30;78.30;;;;;;5055939;28;20320;-33
2023/12/14 09:09:25;;;;;;;0.00;0.00;;;9.30;78.30;;;;;;5066990;28;20230;-35
2023/12/14 09:11:57;;;;;;;0.00;0.00;;;9.40;78.40;;;;;;5048328;28;20550;-33
2023/12/14 09:14:27;;;;;;;0.00;0.00;;;9.30;78.30;;;;;;5051162;28;20206;-34
2023/12/14 09:16:54;;;;;;;0.00;0.00;;;9.30;78.30;;;;;;5054608;28;20223;-34
2023/12/14 09:19:24;;;;;;;0.00;0.00;;;9.40;78.40;;;;;;5066577;28;20216;-34
2023/12/14 09:21:51;;;;;;;0.00;0.00;;;9.30;78.30;;;;;;5052013;28;20678;-34
2023/12/14 09:24:18;;;;;;;0.00;0.00;;;9.30;78.30;;;;;;5066227;28;20196;-34
2023/12/14 09:26:52;;;;;;;0.00;0.00;;;9.40;79.00;;;;;;5069958;28;20219;-34
2023/12/14 09:29:20;;;;;;;0.00;0.00;;;9.40;78.30;;;;;;5052054;28;20204;-34
2023/12/14 09:31:50;;;;;;;0.00;0.00;;;9.40;78.20;;;;;;5078624;28;20222;-33
2023/12/14 09:34:17;;;;;;;0.00;0.00;;;9.30;78.20;;;;;;5079997;28;20277;-34
2023/12/14 09:36:45;;;;;;;0.00;0.00;;;9.30;78.30;;;;;;5048441;28;20326;-34
2023/12/14 09:39:21;;;;;;;0.00;0.00;;;9.40;78.40;;;;;;5049695;28;20215;-34
2023/12/14 09:41:50;;;;;;;0.00;0.00;;;9.40;78.40;;;;;;5065363;28;20316;-34
2023/12/14 09:44:21;;;;;;;0.00;0.00;;;9.40;78.40;;;;;;5057966;28;20689;-34
2023/12/14 09:46:51;;;;;;;0.00;0.00;;;9.40;78.30;;;;;;5067038;28;20208;-35
2023/12/14 09:49:20;;;;;;;0.00;0.00;;;9.30;78.20;;;;;;5050583;28;20200;-34
2023/12/14 09:51:47;;;;;;;0.00;0.00;;;9.30;78.10;;;;;;5064705;28;20207;-34
2023/12/14 09:54:19;;;;;;;0.00;0.00;;;9.30;78.10;;;;;;5064598;28;20211;-34
2023/12/14 09:56:48;;;;;;;0.00;0.00;;;9.30;78.20;;;;;;5062013;28;20785;-33
2023/12/14 09:59:18;;;;;;;0.00;0.00;;;9.30;78.20;;;;;;5049375;28;20548;-34
2023/12/14 10:01:46;;;;;;;0.00;0.00;;;9.30;78.20;;;;;;5074110;28;20197;-34
2023/12/14 10:04:15;;;;;;;0.00;0.00;;;9.30;78.30;;;;;;5049990;28;20206;-34
2023/12/14 10:06:46;;;;;;;0.00;0.00;;;9.30;78.30;;;;;;5049085;28;20262;-34
2023/12/14 10:09:16;;;;;;;0.00;0.00;;;9.30;78.30;;;;;;5048865;28;20208;-34
2023/12/14 10:11:44;;;;;;;0.00;0.00;;;9.40;78.40;;;;;;5045677;28;20231;-34
2023/12/14 10:14:25;;;;;;;0.00;0.00;;;9.40;78.40;;;;;;5062363;28;20203;-34
2023/12/14 10:16:53;;;;;;;0.00;0.00;;;9.40;78.40;;;;;;5061596;28;20901;-34
2023/12/14 10:19:32;;;;;;;0.00;0.00;;;9.40;78.40;;;;;;5065282;28;20215;-34
2023/12/14 10:22:02;;;;;;;0.00;0.00;;;9.40;78.30;;;;;;5045773;28;20445;-34
2023/12/14 10:24:32;;;;;;;0.00;0.00;;;9.40;78.20;;;;;;5062526;28;20207;-34
2023/12/14 10:27:04;;;;;;;0.00;0.00;;;9.50;78.40;;;;;;5065291;28;20294;-34
2023/12/14 10:29:35;;;;;;;0.00;0.00;;;9.40;78.30;;;;;;5059811;28;20204;-35
2023/12/14 10:32:06;;;;;;;0.00;0.00;;;9.50;78.40;;;;;;5048990;28;20224;-34
2023/12/14 10:34:37;;;;;;;0.00;0.00;;;9.50;78.30;;;;;;5045206;28;20250;-35
2023/12/14 10:37:06;;;;;;;0.00;0.00;;;9.50;78.30;;;;;;5076863;28;20212;-34
2023/12/14 10:39:43;;;;;;;0.00;0.00;;;9.50;78.30;;;;;;5072582;28;20212;-34
2023/12/14 10:42:14;;;;;;;0.00;0.00;;;9.50;78.30;;;;;;5070166;28;20196;-34
2023/12/14 10:44:52;;;;;;;0.00;0.00;;;9.50;78.30;;;;;;5054829;28;20211;-33
2023/12/14 10:47:27;;;;;;;0.00;0.00;;;9.50;78.30;;;;;;5063898;28;20211;-37
2023/12/14 10:49:59;;;;;;;0.00;0.00;;;9.50;78.30;;;;;;5060325;28;20662;-37
2023/12/14 10:52:28;;;;;;;0.00;0.00;;;9.60;78.40;;;;;;5027340;28;20295;-36
2023/12/14 10:55:07;;;;;;;0.00;0.00;;;9.60;78.50;;;;;;5049676;28;20208;-36
2023/12/14 10:57:34;;;;;;;0.00;0.00;;;9.60;78.50;;;;;;5048474;28;20228;-36
2023/12/14 11:00:04;;;;;;;0.00;0.00;;;9.60;78.40;;;;;;5049136;28;20200;-35
2023/12/14 11:02:44;;;;;;;0.00;0.00;;;9.60;78.40;;;;;;5060310;28;20192;-36
2023/12/14 11:05:22;;;;;;;0.00;0.00;;;9.70;78.60;;;;;;5056159;28;20227;-33
2023/12/14 11:07:55;;;;;;;0.00;0.00;;;9.70;78.60;;;;;;5065794;28;20223;-35
2023/12/14 11:10:43;;;;;;;0.00;0.00;;;9.70;78.50;;;;;;5052420;28;20247;-35
2023/12/14 11:13:13;;;;;;;0.00;0.00;;;9.70;78.50;;;;;;5049317;28;20323;-36
2023/12/14 11:15:52;;;;;;;0.00;0.00;;;9.70;78.50;;;;;;5055734;28;20234;-35
2023/12/14 11:18:25;;;;;;;0.00;0.00;;;9.80;78.50;;;;;;5061790;28;20218;-35
2023/12/14 11:21:02;;;;;;;0.00;0.00;;;9.80;78.50;;;;;;5059645;28;20298;-36
2023/12/14 11:23:35;;;;;;;0.00;0.00;;;9.80;78.40;;;;;;5042495;28;20193;-35
2023/12/14 11:26:07;;;;;;;0.00;0.00;;;9.80;78.40;;;;;;5043576;28;20196;-34
2023/12/14 11:28:46;;;;;;;0.00;0.00;;;9.80;78.40;;;;;;5044695;28;20211;-34
2023/12/14 11:31:16;;;;;;;0.00;0.00;;;9.80;78.40;;;;;;5044141;28;20720;-33
2023/12/14 11:33:44;;;;;;;0.00;0.00;;;9.80;78.40;;;;;;5047770;28;20423;-34
2023/12/14 11:36:17;;;;;;;0.00;0.00;;;9.80;78.50;;;;;;5051677;28;20203;-34
2023/12/14 11:38:50;;;;;;;0.00;0.00;;;9.80;78.50;;;;;;5057261;28;20239;-34
2023/12/14 11:41:20;;;;;;;0.00;0.00;;;9.90;78.60;;;;;;5052137;28;20223;-34
2023/12/14 11:43:48;;;;;;;0.00;0.00;;;9.90;78.60;;;;;;5060918;28;20456;-34
2023/12/14 11:46:15;;;;;;;0.00;0.00;;;9.90;78.50;;;;;;5055439;28;20321;-34
2023/12/14 11:48:49;;;;;;;0.00;0.00;;;9.90;78.50;;;;;;5064040;28;20276;-34
2023/12/14 11:51:17;;;;;;;0.00;0.00;;;9.90;78.50;;;;;;5055936;28;20210;-35
2023/12/14 11:53:47;;;;;;;0.00;0.00;;;9.90;78.50;;;;;;5053772;28;20777;-35
2023/12/14 11:56:18;;;;;;;0.00;0.00;;;10.00;78.50;;;;;;5044794;28;20231;-34
2023/12/14 11:58:49;;;;;;;0.00;0.00;;;10.00;79.30;;;;;;5054625;28;20224;-35
2023/12/14 12:01:27;;;;;;;0.00;0.00;;;10.00;78.50;;;;;;5051339;28;20527;-34
2023/12/14 12:03:55;;;;;;;0.00;0.00;;;10.00;78.60;;;;;;5048245;28;20272;-34
2023/12/14 12:06:25;;;;;;;0.00;0.00;;;10.00;78.60;;;;;;5057076;28;20322;-34
2023/12/14 12:08:55;;;;;;;0.00;0.00;;;10.00;78.60;;;;;;5047515;28;20679;-34
2023/12/14 12:11:27;;;;;;;0.00;0.00;;;10.00;78.60;;;;;;5053683;28;20215;-34
2023/12/14 12:13:56;;;;;;;0.00;0.00;;;10.00;78.60;;;;;;5055630;28;20280;-34
2023/12/14 12:16:29;;;;;;;0.00;0.00;;;10.10;78.60;;;;;;5048399;28;20227;-34
2023/12/14 12:18:58;;;;;;;0.00;0.00;;;10.10;78.60;;;;;;5059718;28;20303;-34
2023/12/14 12:21:28;;;;;;;0.00;0.00;;;10.10;78.60;;;;;;5057771;28;20274;-35
2023/12/14 12:23:55;;;;;;;0.00;0.00;;;10.10;78.60;;;;;;5048089;28;20211;-34
2023/12/14 12:26:27;;;;;;;0.00;0.00;;;10.10;78.60;;;;;;5045981;28;20207;-34
2023/12/14 12:28:57;;;;;;;0.00;0.00;;;10.10;78.50;;;;;;5046479;28;20208;-35
2023/12/14 12:31:25;;;;;;;0.00;0.00;;;10.10;78.50;;;;;;5065008;28;20208;-34
2023/12/14 12:33:54;;;;;;;0.00;0.00;;;10.10;78.40;;;;;;5055350;28;20220;-35
2023/12/14 12:36:24;;;;;;;0.00;0.00;;;10.10;78.50;;;;;;5049567;28;20200;-34
2023/12/14 12:38:53;;;;;;;0.00;0.00;;;10.10;78.40;;;;;;5060322;28;20215;-35
2023/12/14 12:41:23;;;;;;;0.00;0.00;;;10.10;78.40;;;;;;5053274;28;20268;-34
2023/12/14 12:43:50;;;;;;;0.00;0.00;;;10.10;78.40;;;;;;5054952;28;20227;-34
2023/12/14 12:46:18;;;;;;;0.00;0.00;;;10.10;78.40;;;;;;5046614;28;20285;-34
2023/12/14 12:48:47;;;;;;;0.00;0.00;;;10.10;78.40;;;;;;5052975;28;20200;-34
2023/12/14 12:51:14;;;;;;;0.00;0.00;;;10.10;78.30;;;;;;5067834;28;20334;-34
2023/12/14 12:53:44;;;;;;;0.00;0.00;;;10.10;78.30;;;;;;5064078;28;20209;-34
2023/12/14 12:56:13;;;;;;;0.00;0.00;;;10.20;78.30;;;;;;5049996;28;20207;-35
2023/12/14 12:58:43;;;;;;;0.00;0.00;;;10.10;78.30;;;;;;5051489;28;20219;-34
2023/12/14 13:01:11;;;;;;;0.00;0.00;;;10.10;78.30;;;;;;5052574;28;20200;-33
2023/12/14 13:03:38;;;;;;;0.00;0.00;;;10.10;78.20;;;;;;5051643;28;20228;-35
2023/12/14 13:06:05;;;;;;;0.00;0.00;;;10.10;78.30;;;;;;5055255;28;20322;-34